Thomsen River, Northwest Territories

8:28 AM MDT on August 20, 2014 (GMT -0600)
Chesterfield Inlet | Change Station
CLOSE
Current Station
Airport
Location: Thomsen River,
Elevation: 36 ft
Nearby Weather Stations

Elev 36 ft 63.33 °N, 90.72 °W | Updated 28 minutes ago

Mostly Cloudy
Mostly Cloudy
41 °F
Feels Like 35 °F
N
10
Wind Variable Wind from ESE

Today
High -- | Low -- °F
--% Chance of Precip.
Yesterday
High -- | Low -- °F
Precip. -- in
4:36 AM 11:20 PM
Waning Crescent, 21% visible
Pressure 30.13 in
Visibility 15.0 miles
Clouds Mostly Cloudy 2500 ft
Windchill 35 °F
Dew Point 39 °F
Humidity 93%
Rainfall 0.00 in
Snow Depth Not available.
UV 0 out of 12
Pollen Not available.
Air Quality Not available.
Flu Activity Not available.
METAR CYCS 201400Z 11009KT 15SM BKN025 05/04 A3013 RMK SC7 WND ESTD VIA CYQB SLP203

More Conditions Fewer Conditions

Pressure 30.13 in
Visibility 15.0 miles
Clouds Mostly Cloudy 2500 ft
Windchill 35 °F
Dew Point 39 °F
Humidity 93%
Rainfall 0.00 in
Snow Depth Not available.
UV 0 out of 12
Pollen Not available.
Air Quality Not available.
Flu Activity Not available.
METAR CYCS 201400Z 11009KT 15SM BKN025 05/04 A3013 RMK SC7 WND ESTD VIA CYQB SLP203

More Conditions Fewer Conditions

10-Day Weather Forecast

Almanac

Astronomy

Aug. 20, 2014 Rise Set
Actual Time 4:36 AM MDT 11:20 PM MDT
Civil Twilight Sun does not rise 1:28 AM MDT
Nautical Twilight Sun does not rise Sun does not rise
Astronomical Twilight Sun does not rise Sun does not rise
Moon No Moon Rise No Moon Set
Length of Visible Light 24h 00m
Length of Day
18h 44m
Tomorrow will be 14m 21s shorter.
Waning Crescent, 21% of the Moon is Illuminated
Today
Waning Crescent
Aug 25
New
Sep 2
First Quarter
Sep 8
Full
Sep 15
Last Quarter

Yesterday's Extremes

Country Highs Country Lows

Community

WunderPhotos

Upload Photos

1,745,653 photos uploaded!

Nearby

Snow Depth

Not available.

Earthquake Activity

City Distance Mag. Time & Date
No recent earthquake activity has been reported nearby.
Minimum magnitude displayed is 2.5.

Coastal Water Temperatures

Place Temperature
No Stations Reporting

Nearby Weather Stations